KMKO

Muskogee-Davis Regional Airport

Muskogee, Oklahoma, USA
METAR KMKO 140653Z AUTO 36018G24KT 4SM -RA BR OVC007 06/06 A2992 RMK AO2 RAB12 SLP131 P0002 T00560056
Observed Flight Rules
Dec-14 @ 06:53 UTC (an hour ago) Instrument Flight Rules
Wind Visibility Clouds Conditions
360° at 18 knots
 Gusting to 24 knots
4 miles
  • Overcast at 700' AGL
  • Light Rain
  • Mist
Temperatures Readings Precipitation
Current 6°C / 43°F
Dewpoint 6°C / 43°F
Humidity 100%
Altimeter 29.92" Hg
Pressure 1013.1 hPa
Elevation 185
Current Rain 0.02
METAR KMKO 140653Z AUTO 36018G24KT 4SM -RA BR OVC007 06/06 A2992 RMK AO2 RAB12 SLP131 P0002 T00560056
Observed Flight Rules
Dec-14 @ 06:53 UTC
(an hour ago)
IFR
Wind Visibility
360° at 18 knots
 Gusting to 24 knots
4 miles
Clouds
  • Overcast at 700' AGL
Conditions
  • Light Rain
  • Mist
Temperature Dewpoint
6°C / 43°F 6°C / 43°F
Humidity Altimeter Pressure
100% 29.92" Hg 1013.1 hPa
Current Rain
0.02